createdAt,value
2023-02-26T00:02:20.491Z,0.19
2023-02-26T00:04:47.014Z,0.20
2023-02-26T00:07:13.570Z,0.24
2023-02-26T00:09:40.029Z,0.28
2023-02-26T00:12:07.252Z,0.28
2023-02-26T00:14:34.095Z,0.30
2023-02-26T00:17:30.522Z,0.31
2023-02-26T00:19:57.694Z,0.29
2023-02-26T00:22:24.690Z,0.24
2023-02-26T00:24:51.375Z,0.19
2023-02-26T00:27:17.871Z,0.14
2023-02-26T00:29:44.667Z,0.12
2023-02-26T00:32:11.815Z,0.09
2023-02-26T00:34:39.737Z,0.02
2023-02-26T00:37:21.493Z,-0.04
2023-02-26T00:40:14.605Z,-0.11
2023-02-26T00:42:41.537Z,-0.19
2023-02-26T00:45:09.657Z,-0.21
2023-02-26T00:47:51.481Z,-0.25
2023-02-26T00:50:23.642Z,-0.29
2023-02-26T00:53:22.086Z,-0.31
2023-02-26T00:55:48.568Z,-0.27
2023-02-26T00:58:15.052Z,-0.23
2023-02-26T01:00:41.576Z,-0.16
2023-02-26T01:03:08.462Z,-0.10
2023-02-26T01:05:35.362Z,-0.05
2023-02-26T01:08:12.579Z,-0.04
2023-02-26T01:10:39.662Z,-0.08
2023-02-26T01:13:06.661Z,-0.17
2023-02-26T01:15:33.700Z,-0.23
2023-02-26T01:18:14.267Z,-0.30
2023-02-26T01:20:47.084Z,-0.34
2023-02-26T01:23:21.247Z,-0.35
2023-02-26T01:26:00.995Z,-0.40
2023-02-26T01:28:31.011Z,-0.44
2023-02-26T01:31:02.519Z,-0.46
2023-02-26T01:33:43.045Z,-0.47
2023-02-26T01:36:17.859Z,-0.49
2023-02-26T01:39:02.952Z,-0.45
2023-02-26T01:41:55.298Z,-0.35
2023-02-26T01:44:42.846Z,-0.27
2023-02-26T01:47:18.008Z,-0.20
2023-02-26T01:49:45.076Z,-0.14
2023-02-26T01:52:48.535Z,-0.07
2023-02-26T01:55:19.419Z,-0.01
2023-02-26T01:57:48.576Z,0.01
2023-02-26T02:00:16.582Z,0.04
2023-02-26T02:02:43.201Z,0.06
2023-02-26T02:05:16.811Z,0.08
2023-02-26T02:07:44.320Z,0.11
2023-02-26T02:10:11.383Z,0.17
2023-02-26T02:12:56.891Z,0.23
2023-02-26T02:15:37.254Z,0.27
2023-02-26T02:18:20.854Z,0.30
2023-02-26T02:21:05.892Z,0.31
2023-02-26T02:23:54.903Z,0.31
2023-02-26T02:26:40.247Z,0.31
2023-02-26T02:29:25.352Z,0.31
2023-02-26T02:32:09.055Z,0.29
2023-02-26T02:34:51.984Z,0.29
2023-02-26T02:37:36.710Z,0.26
2023-02-26T02:40:18.806Z,0.29
2023-02-26T02:42:57.964Z,0.27
2023-02-26T02:45:40.873Z,0.28
2023-02-26T02:48:38.929Z,0.33
2023-02-26T02:51:17.787Z,0.36
2023-02-26T02:53:50.445Z,0.38
2023-02-26T02:56:29.202Z,0.39
2023-02-26T02:59:02.971Z,0.39
2023-02-26T03:01:31.215Z,0.43
2023-02-26T03:04:07.450Z,0.41
2023-02-26T03:06:34.919Z,0.41
2023-02-26T03:09:04.245Z,0.41
2023-02-26T03:11:31.947Z,0.42
2023-02-26T03:14:00.530Z,0.44
2023-02-26T03:17:09.013Z,0.46
2023-02-26T03:20:02.611Z,0.47
2023-02-26T03:22:45.493Z,0.50
2023-02-26T03:25:28.498Z,0.54
2023-02-26T03:28:18.692Z,0.53
2023-02-26T03:31:00.145Z,0.54
2023-02-26T03:33:30.168Z,0.54
2023-02-26T03:36:12.200Z,0.55
2023-02-26T03:38:55.233Z,0.59
2023-02-26T03:41:32.380Z,0.58
2023-02-26T03:44:03.289Z,0.60
2023-02-26T03:46:35.852Z,0.64
2023-02-26T03:49:09.108Z,0.67
2023-02-26T03:51:38.596Z,0.70
2023-02-26T03:54:46.846Z,0.72
2023-02-26T03:57:33.422Z,0.76
2023-02-26T04:00:38.058Z,0.82
2023-02-26T04:03:26.931Z,0.83
2023-02-26T04:05:54.329Z,0.81
2023-02-26T04:08:22.423Z,0.82
2023-02-26T04:11:11.356Z,0.83
2023-02-26T04:13:37.887Z,0.84
2023-02-26T04:16:04.805Z,0.83
2023-02-26T04:18:31.587Z,0.80
2023-02-26T04:20:58.137Z,0.79
2023-02-26T04:23:24.654Z,0.78
2023-02-26T04:25:51.707Z,0.79
2023-02-26T04:28:18.569Z,0.78
2023-02-26T04:30:46.826Z,0.75
2023-02-26T04:33:15.775Z,0.75
2023-02-26T04:35:43.110Z,0.73
2023-02-26T04:38:09.716Z,0.72
2023-02-26T04:40:36.439Z,0.73
2023-02-26T04:43:04.757Z,0.72
2023-02-26T04:45:35.764Z,0.72
2023-02-26T04:48:02.336Z,0.72
2023-02-26T04:50:29.117Z,0.73
2023-02-26T04:52:57.284Z,0.74
2023-02-26T04:55:24.541Z,0.75
2023-02-26T04:57:51.078Z,0.76
2023-02-26T05:00:22.195Z,0.76
2023-02-26T05:02:48.973Z,0.75
2023-02-26T05:05:15.475Z,0.74
2023-02-26T05:07:41.929Z,0.75
2023-02-26T05:10:09.373Z,0.76
2023-02-26T05:12:35.877Z,0.75
2023-02-26T05:15:02.763Z,0.74
2023-02-26T05:17:29.345Z,0.72
2023-02-26T05:19:55.789Z,0.69
2023-02-26T05:22:22.475Z,0.67
2023-02-26T05:24:49.812Z,0.66
2023-02-26T05:27:16.475Z,0.65
2023-02-26T05:29:46.032Z,0.63
2023-02-26T05:32:14.456Z,0.59
2023-02-26T05:34:41.153Z,0.52
2023-02-26T05:37:07.686Z,0.47
2023-02-26T05:39:34.224Z,0.41
2023-02-26T05:42:00.754Z,0.36
2023-02-26T05:44:27.588Z,0.31
2023-02-26T05:46:54.223Z,0.26
2023-02-26T05:49:21.031Z,0.18
2023-02-26T05:51:47.543Z,0.12
2023-02-26T05:54:13.977Z,0.08
2023-02-26T05:56:40.531Z,0.03
2023-02-26T05:59:07.051Z,-0.01
2023-02-26T06:01:34.097Z,-0.08
2023-02-26T06:04:00.705Z,-0.12
2023-02-26T06:06:27.432Z,-0.15
2023-02-26T06:08:54.103Z,-0.18
2023-02-26T06:11:20.771Z,-0.19
2023-02-26T06:13:47.312Z,-0.23
2023-02-26T06:16:13.908Z,-0.25
2023-02-26T06:18:40.474Z,-0.26
2023-02-26T06:21:07.343Z,-0.28
2023-02-26T06:23:33.890Z,-0.29
2023-02-26T06:26:00.400Z,-0.29
2023-02-26T06:28:27.178Z,-0.28
2023-02-26T06:30:53.981Z,-0.27
2023-02-26T06:33:21.120Z,-0.28
2023-02-26T06:35:47.722Z,-0.27
2023-02-26T06:38:14.503Z,-0.25
2023-02-26T06:40:41.110Z,-0.25
2023-02-26T06:43:07.702Z,-0.23
2023-02-26T06:45:34.265Z,-0.23
2023-02-26T06:48:00.784Z,-0.20
2023-02-26T06:50:27.329Z,-0.16
2023-02-26T06:52:53.850Z,-0.15
2023-02-26T06:55:21.963Z,-0.13
2023-02-26T06:57:48.473Z,-0.09
2023-02-26T07:00:15.351Z,-0.07
2023-02-26T07:02:41.865Z,-0.05
2023-02-26T07:05:08.933Z,0.00
2023-02-26T07:07:35.427Z,0.01
2023-02-26T07:10:01.933Z,0.07
2023-02-26T07:12:28.388Z,0.12
2023-02-26T07:14:54.806Z,0.19
2023-02-26T07:17:21.382Z,0.29
2023-02-26T07:19:48.883Z,0.40
2023-02-26T07:22:16.225Z,0.47
2023-02-26T07:24:42.920Z,0.48
2023-02-26T07:27:10.148Z,0.47
2023-02-26T07:29:36.850Z,0.47
2023-02-26T07:32:04.566Z,0.49
2023-02-26T07:34:32.140Z,0.50
2023-02-26T07:36:59.181Z,0.52
2023-02-26T07:39:27.140Z,0.54
2023-02-26T07:41:54.647Z,0.59
2023-02-26T07:44:21.886Z,0.62
2023-02-26T07:46:48.493Z,0.63
2023-02-26T07:49:15.057Z,0.64
2023-02-26T07:51:45.914Z,0.67
2023-02-26T07:54:13.981Z,0.71
2023-02-26T07:56:42.793Z,0.76
2023-02-26T07:59:09.647Z,0.78
2023-02-26T08:01:36.544Z,0.80
2023-02-26T08:04:03.655Z,0.86
2023-02-26T08:06:30.421Z,0.90
2023-02-26T08:08:56.899Z,0.95
2023-02-26T08:11:23.480Z,1.04
2023-02-26T08:13:49.922Z,1.12
2023-02-26T08:16:16.489Z,1.17
2023-02-26T08:18:43.146Z,1.25
2023-02-26T08:21:10.731Z,1.32
2023-02-26T08:23:37.615Z,1.41
2023-02-26T08:26:07.074Z,1.46
2023-02-26T08:28:34.543Z,1.48
2023-02-26T08:31:01.599Z,1.57
2023-02-26T08:33:29.384Z,1.68
2023-02-26T08:35:59.314Z,1.84
2023-02-26T08:38:27.880Z,1.85
2023-02-26T08:40:54.868Z,1.85
2023-02-26T08:43:21.498Z,1.83
2023-02-26T08:45:48.126Z,1.81
2023-02-26T08:48:15.118Z,1.78
2023-02-26T08:50:41.668Z,1.76
2023-02-26T08:53:08.243Z,1.75
2023-02-26T08:55:35.059Z,1.75
2023-02-26T08:58:01.676Z,1.74
2023-02-26T09:00:28.746Z,1.70
2023-02-26T09:02:55.297Z,1.70
2023-02-26T09:05:23.557Z,1.70
2023-02-26T09:07:50.080Z,1.70
2023-02-26T09:10:17.307Z,1.69
2023-02-26T09:12:44.712Z,1.68
2023-02-26T09:15:11.996Z,1.70
2023-02-26T09:17:39.045Z,1.72
2023-02-26T09:20:06.526Z,1.74
2023-02-26T09:22:33.277Z,1.75
2023-02-26T09:24:59.820Z,1.79
2023-02-26T09:27:26.982Z,1.80
2023-02-26T09:29:53.476Z,1.85
2023-02-26T09:32:20.595Z,1.89
2023-02-26T09:34:47.132Z,1.93
2023-02-26T09:37:13.575Z,2.00
2023-02-26T09:39:40.068Z,2.10
2023-02-26T09:42:43.813Z,2.30
2023-02-26T09:45:22.313Z,2.38
2023-02-26T09:47:52.085Z,2.41
2023-02-26T09:50:38.679Z,2.42
2023-02-26T09:53:18.622Z,2.45
2023-02-26T09:55:47.930Z,2.49
2023-02-26T09:58:34.192Z,2.53
2023-02-26T10:01:35.759Z,2.58
2023-02-26T10:04:21.246Z,2.62
2023-02-26T10:06:53.850Z,2.59
2023-02-26T10:09:39.366Z,2.57
2023-02-26T10:12:12.564Z,2.53
2023-02-26T10:14:56.386Z,2.48
2023-02-26T10:17:44.963Z,2.42
2023-02-26T10:20:29.502Z,2.40
2023-02-26T10:23:16.187Z,2.40
2023-02-26T10:25:47.946Z,2.37
2023-02-26T10:28:14.487Z,2.41
2023-02-26T10:30:49.930Z,2.45
2023-02-26T10:33:35.114Z,2.42
2023-02-26T10:36:51.139Z,2.48
2023-02-26T10:39:33.177Z,2.57
2023-02-26T10:42:11.215Z,2.61
2023-02-26T10:45:13.304Z,2.63
2023-02-26T10:47:53.879Z,2.67
2023-02-26T10:50:23.501Z,2.73
2023-02-26T10:52:52.386Z,2.80
2023-02-26T10:55:27.949Z,2.83
2023-02-26T10:58:05.156Z,2.78
2023-02-26T11:00:35.236Z,2.76
2023-02-26T11:03:04.145Z,2.72
2023-02-26T11:05:32.886Z,2.71
2023-02-26T11:08:09.834Z,2.73
2023-02-26T11:10:50.662Z,2.75
2023-02-26T11:13:17.675Z,2.78
2023-02-26T11:15:48.748Z,2.82
2023-02-26T11:18:21.358Z,2.87
2023-02-26T11:20:48.988Z,2.96
2023-02-26T11:23:21.953Z,3.05
2023-02-26T11:25:55.230Z,3.09
2023-02-26T11:28:35.811Z,3.14
2023-02-26T11:31:09.451Z,3.18
2023-02-26T11:33:39.825Z,3.17
2023-02-26T11:36:11.430Z,3.13
2023-02-26T11:38:38.208Z,3.09
2023-02-26T11:41:06.272Z,3.08
2023-02-26T11:43:44.469Z,3.11
2023-02-26T11:46:12.388Z,3.07
2023-02-26T11:48:40.830Z,3.13
2023-02-26T11:51:12.326Z,3.12
2023-02-26T11:53:49.295Z,3.15
2023-02-26T11:56:25.479Z,3.22
2023-02-26T11:58:55.537Z,3.26
2023-02-26T12:01:27.804Z,3.31
2023-02-26T12:04:00.750Z,3.29
2023-02-26T12:06:27.248Z,3.26
2023-02-26T12:08:54.160Z,3.22
2023-02-26T12:11:34.370Z,3.24
2023-02-26T12:14:22.455Z,3.28
2023-02-26T12:17:10.834Z,3.36
2023-02-26T12:19:54.521Z,3.39
2023-02-26T12:22:54.620Z,3.37
2023-02-26T12:25:40.864Z,3.38
2023-02-26T12:28:25.065Z,3.40
2023-02-26T12:30:59.458Z,3.44
2023-02-26T12:33:28.790Z,3.47
2023-02-26T12:36:05.835Z,3.53
2023-02-26T12:38:41.431Z,3.57
2023-02-26T12:41:10.831Z,3.60
2023-02-26T12:43:52.600Z,3.61
2023-02-26T12:46:35.686Z,3.62
2023-02-26T12:49:27.094Z,3.67
2023-02-26T12:52:23.711Z,3.67
2023-02-26T12:55:11.544Z,3.71
2023-02-26T12:57:52.782Z,3.73
2023-02-26T13:00:48.585Z,3.77
2023-02-26T13:03:55.310Z,3.86
2023-02-26T13:06:39.629Z,3.90
2023-02-26T13:09:22.627Z,3.92
2023-02-26T13:12:24.907Z,3.93
2023-02-26T13:15:23.661Z,3.90
2023-02-26T13:18:01.413Z,3.87
2023-02-26T13:20:29.141Z,3.83
2023-02-26T13:23:03.442Z,3.84
2023-02-26T13:25:48.841Z,3.87
2023-02-26T13:28:33.462Z,3.88
2023-02-26T13:31:01.795Z,3.93
2023-02-26T13:33:31.676Z,3.97
2023-02-26T13:36:00.368Z,3.99
2023-02-26T13:38:53.165Z,4.00
2023-02-26T13:41:34.277Z,4.00
2023-02-26T13:44:06.634Z,3.98
2023-02-26T13:46:36.114Z,4.00
2023-02-26T13:49:05.517Z,4.01
2023-02-26T13:51:44.122Z,3.99
2023-02-26T13:54:17.425Z,3.96
2023-02-26T13:56:43.955Z,3.94
2023-02-26T13:59:13.603Z,3.95
2023-02-26T14:01:46.800Z,3.95
2023-02-26T14:04:22.690Z,3.97
2023-02-26T14:06:51.847Z,4.00
2023-02-26T14:09:21.237Z,4.01
2023-02-26T14:12:23.606Z,4.01
2023-02-26T14:14:59.986Z,4.05
2023-02-26T14:17:37.942Z,4.10
2023-02-26T14:20:26.521Z,4.13
2023-02-26T14:23:11.613Z,4.12
2023-02-26T14:25:50.900Z,4.11
2023-02-26T14:28:26.812Z,4.11
2023-02-26T14:31:11.032Z,4.16
2023-02-26T14:33:46.555Z,4.28
2023-02-26T14:36:26.243Z,4.51
2023-02-26T14:38:54.159Z,4.73
2023-02-26T14:41:32.747Z,4.94
2023-02-26T14:44:12.142Z,5.04
2023-02-26T14:46:39.337Z,5.06
2023-02-26T14:49:13.393Z,5.09
2023-02-26T14:52:05.965Z,5.03
2023-02-26T14:54:46.137Z,4.89
2023-02-26T14:57:18.814Z,4.86
2023-02-26T15:00:10.076Z,4.94
2023-02-26T15:03:12.204Z,5.02
2023-02-26T15:05:53.638Z,5.09
2023-02-26T15:08:46.473Z,5.17
2023-02-26T15:11:41.032Z,5.13
2023-02-26T15:14:29.649Z,5.02
2023-02-26T15:17:09.922Z,4.91
2023-02-26T15:20:05.541Z,4.74
2023-02-26T15:23:06.324Z,4.63
2023-02-26T15:25:36.836Z,4.68
2023-02-26T15:28:05.771Z,4.76
2023-02-26T15:30:34.491Z,4.77
2023-02-26T15:33:10.885Z,4.81
2023-02-26T15:35:37.348Z,4.86
2023-02-26T15:38:05.844Z,4.86
2023-02-26T15:40:35.858Z,4.87
2023-02-26T15:43:05.055Z,4.87
2023-02-26T15:45:38.046Z,4.88
2023-02-26T15:48:08.748Z,4.86
2023-02-26T15:50:40.572Z,4.84
2023-02-26T15:53:09.456Z,4.84
2023-02-26T15:55:43.498Z,4.85
2023-02-26T15:58:10.481Z,4.83
2023-02-26T16:00:37.101Z,4.82
2023-02-26T16:03:04.817Z,4.80
2023-02-26T16:05:32.186Z,4.79
2023-02-26T16:07:58.772Z,4.76
2023-02-26T16:10:42.005Z,4.73
2023-02-26T16:13:14.828Z,4.65
2023-02-26T16:15:42.314Z,4.57
2023-02-26T16:18:18.292Z,4.49
2023-02-26T16:20:48.280Z,4.38
2023-02-26T16:23:25.138Z,4.27
2023-02-26T16:25:55.446Z,4.19
2023-02-26T16:28:26.567Z,4.15
2023-02-26T16:30:55.275Z,4.11
2023-02-26T16:33:24.408Z,4.03
2023-02-26T16:36:12.017Z,3.96
2023-02-26T16:39:10.505Z,3.87
2023-02-26T16:41:40.243Z,3.80
2023-02-26T16:44:48.475Z,3.74
2023-02-26T16:47:15.862Z,3.69
2023-02-26T16:49:44.224Z,3.62
2023-02-26T16:52:19.095Z,3.53
2023-02-26T16:54:55.443Z,3.44
2023-02-26T16:57:35.373Z,3.35
2023-02-26T17:00:06.966Z,3.27
2023-02-26T17:02:36.854Z,3.24
2023-02-26T17:05:16.812Z,3.19
2023-02-26T17:07:51.580Z,3.15
2023-02-26T17:10:40.299Z,3.09
2023-02-26T17:13:15.304Z,3.01
2023-02-26T17:15:44.103Z,2.94
2023-02-26T17:18:10.679Z,2.86
2023-02-26T17:20:38.115Z,2.81
2023-02-26T17:23:08.813Z,2.75
2023-02-26T17:25:39.577Z,2.71
2023-02-26T17:28:07.239Z,2.64
2023-02-26T17:30:34.610Z,2.59
2023-02-26T17:33:03.978Z,2.53
2023-02-26T17:35:31.369Z,2.48
2023-02-26T17:37:58.231Z,2.42
2023-02-26T17:40:31.705Z,2.37
2023-02-26T17:42:59.938Z,2.33
2023-02-26T17:45:26.456Z,2.30
2023-02-26T17:47:53.018Z,2.25
2023-02-26T17:50:26.641Z,2.21
2023-02-26T17:52:53.126Z,2.16
2023-02-26T17:55:19.961Z,2.11
2023-02-26T17:57:46.609Z,2.09
2023-02-26T18:00:15.712Z,2.07
2023-02-26T18:02:42.344Z,2.02
2023-02-26T18:05:09.264Z,1.98
2023-02-26T18:07:37.077Z,1.93
2023-02-26T18:10:04.016Z,1.90
2023-02-26T18:12:30.694Z,1.86
2023-02-26T18:14:57.237Z,1.83
2023-02-26T18:17:31.021Z,1.79
2023-02-26T18:19:57.953Z,1.73
2023-02-26T18:22:25.935Z,1.69
2023-02-26T18:24:53.562Z,1.65
2023-02-26T18:27:23.229Z,1.59
2023-02-26T18:29:49.848Z,1.57
2023-02-26T18:32:22.207Z,1.53
2023-02-26T18:34:50.799Z,1.50
2023-02-26T18:37:23.700Z,1.46
2023-02-26T18:39:50.604Z,1.43
2023-02-26T18:42:16.980Z,1.38
2023-02-26T18:44:43.384Z,1.35
2023-02-26T18:47:10.585Z,1.30
2023-02-26T18:49:36.990Z,1.26
2023-02-26T18:52:03.517Z,1.22
2023-02-26T18:54:29.949Z,1.19
2023-02-26T18:56:56.467Z,1.16
2023-02-26T18:59:23.249Z,1.12
2023-02-26T19:01:50.434Z,1.09
2023-02-26T19:04:16.980Z,1.08
2023-02-26T19:06:43.516Z,1.08
2023-02-26T19:09:10.026Z,1.05
2023-02-26T19:11:38.072Z,1.02
2023-02-26T19:14:05.513Z,1.00
2023-02-26T19:16:35.167Z,1.00
2023-02-26T19:19:05.127Z,0.98
2023-02-26T19:21:36.208Z,0.94
2023-02-26T19:24:06.356Z,0.94
2023-02-26T19:26:33.926Z,0.93
2023-02-26T19:29:00.807Z,0.91
2023-02-26T19:31:27.630Z,0.90
2023-02-26T19:33:54.379Z,0.87
2023-02-26T19:36:21.947Z,0.86
2023-02-26T19:38:51.479Z,0.83
2023-02-26T19:41:19.772Z,0.82
2023-02-26T19:43:49.069Z,0.80
2023-02-26T19:46:15.817Z,0.79
2023-02-26T19:48:42.445Z,0.77
2023-02-26T19:51:09.792Z,0.76
2023-02-26T19:53:36.724Z,0.74
2023-02-26T19:56:04.884Z,0.74
2023-02-26T19:58:31.738Z,0.73
2023-02-26T20:00:59.819Z,0.71
2023-02-26T20:03:27.112Z,0.69
2023-02-26T20:05:54.030Z,0.68
2023-02-26T20:08:21.880Z,0.66
2023-02-26T20:10:53.580Z,0.65
2023-02-26T20:13:20.681Z,0.62
2023-02-26T20:15:49.590Z,0.59
2023-02-26T20:18:17.067Z,0.56
2023-02-26T20:20:43.810Z,0.53
2023-02-26T20:23:10.986Z,0.53
2023-02-26T20:25:38.360Z,0.52
2023-02-26T20:28:05.118Z,0.50
2023-02-26T20:30:32.742Z,0.48
2023-02-26T20:32:59.301Z,0.47
2023-02-26T20:35:26.052Z,0.44
2023-02-26T20:37:52.566Z,0.42
2023-02-26T20:40:19.875Z,0.39
2023-02-26T20:42:46.343Z,0.36
2023-02-26T20:45:12.917Z,0.34
2023-02-26T20:47:39.455Z,0.31
2023-02-26T20:50:06.670Z,0.28
2023-02-26T20:52:33.185Z,0.27
2023-02-26T20:54:59.661Z,0.24
2023-02-26T20:57:26.151Z,0.23
2023-02-26T20:59:52.640Z,0.20
2023-02-26T21:02:20.827Z,0.20
2023-02-26T21:04:47.800Z,0.18
2023-02-26T21:07:17.648Z,0.19
2023-02-26T21:09:47.791Z,0.17
2023-02-26T21:12:15.691Z,0.15
2023-02-26T21:14:42.768Z,0.12
2023-02-26T21:17:09.335Z,0.10
2023-02-26T21:19:35.828Z,0.07
2023-02-26T21:22:02.811Z,0.04
2023-02-26T21:24:29.995Z,0.02
2023-02-26T21:26:56.500Z,0.00
2023-02-26T21:29:23.072Z,-0.01
2023-02-26T21:31:53.596Z,-0.04
2023-02-26T21:34:33.048Z,-0.04
2023-02-26T21:37:01.631Z,-0.04
2023-02-26T21:39:30.301Z,-0.05
2023-02-26T21:41:59.196Z,-0.09
2023-02-26T21:44:27.365Z,-0.08
2023-02-26T21:46:53.895Z,-0.11
2023-02-26T21:49:20.362Z,-0.12
2023-02-26T21:51:46.826Z,-0.15
2023-02-26T21:54:13.660Z,-0.18
2023-02-26T21:56:40.169Z,-0.18
2023-02-26T21:59:06.626Z,-0.20
2023-02-26T22:01:33.175Z,-0.23
2023-02-26T22:03:59.872Z,-0.24
2023-02-26T22:06:27.324Z,-0.26
2023-02-26T22:08:53.924Z,-0.27
2023-02-26T22:11:20.607Z,-0.29
2023-02-26T22:13:48.635Z,-0.28
2023-02-26T22:16:16.114Z,-0.29
2023-02-26T22:18:42.684Z,-0.29
2023-02-26T22:21:09.475Z,-0.31
2023-02-26T22:23:36.606Z,-0.32
2023-02-26T22:26:03.382Z,-0.34
2023-02-26T22:28:29.816Z,-0.38
2023-02-26T22:30:56.539Z,-0.41
2023-02-26T22:33:24.042Z,-0.42
2023-02-26T22:35:51.061Z,-0.44
2023-02-26T22:38:17.675Z,-0.47
2023-02-26T22:40:44.286Z,-0.48
2023-02-26T22:43:10.823Z,-0.48
2023-02-26T22:45:38.808Z,-0.50
2023-02-26T22:48:06.730Z,-0.51
2023-02-26T22:50:33.840Z,-0.51
2023-02-26T22:53:00.356Z,-0.52
2023-02-26T22:55:27.597Z,-0.54
2023-02-26T22:57:54.115Z,-0.54
2023-02-26T23:00:21.053Z,-0.56
2023-02-26T23:02:49.330Z,-0.57
2023-02-26T23:05:16.639Z,-0.58
2023-02-26T23:07:43.769Z,-0.61
2023-02-26T23:10:13.711Z,-0.62
2023-02-26T23:12:40.322Z,-0.64
2023-02-26T23:15:08.084Z,-0.65
2023-02-26T23:17:34.830Z,-0.67
2023-02-26T23:20:01.425Z,-0.66
2023-02-26T23:22:28.011Z,-0.64
2023-02-26T23:24:54.498Z,-0.67
2023-02-26T23:27:21.260Z,-0.69
2023-02-26T23:29:47.881Z,-0.71
2023-02-26T23:32:15.075Z,-0.73
2023-02-26T23:34:41.653Z,-0.74
2023-02-26T23:37:08.198Z,-0.77
2023-02-26T23:39:34.676Z,-0.80
2023-02-26T23:42:01.331Z,-0.83
2023-02-26T23:44:27.837Z,-0.84
2023-02-26T23:46:54.548Z,-0.85
2023-02-26T23:49:21.721Z,-0.88
2023-02-26T23:51:48.178Z,-0.89
2023-02-26T23:54:14.671Z,-0.91
2023-02-26T23:56:41.635Z,-0.91
2023-02-26T23:59:08.371Z,-0.93
